Aventura, Florida
Current Conditions -  °F | °C
As of 8:28 AM on Sunday 23 Nov 2014 (Local Time) from KHWO Reporting Station
Broken Clouds Broken Clouds  
Wind Chill: 80°   Ceiling: 2700
Heat Index: 84°   Visibility: 10mi
Dew Point: 72°   Wind: 14mph
Humidity: 76%   Direction: 130°SE
Pressure: 30.05"   Gusts: NA
Location:  25.9536°N, 80.1568°W
Report Text: KHWO 231328Z 13012KT 10SM SCT019 BKN027 27/22 A3005 RMK AO2 T02670222
Loading
Personal Weather Stations






























Interactive Weather Map New forecast layout! Learn more

10-Day Weather Forecast

Advertisements
Track Severe Weather on mobile